Insignia — WDI9968 — position and weather

sailwx.info

Track history (hours):
 
Tides and Currents Weather Stations Pressure Air Temp Water Temp Dewpoint Dewpoint Depression Visibility Wind Speed Wind Dir Waves Ship Positions

Insignia

Owner: Hamilton, Robin, Fort Lauderdale, FL. More information available from US FCC via Universal Licensing System and Coast Guard Vessel Documentation Center.

Last reported at 2018-Jan-12 15:00 UTC. Time now 2018-Jan-20 15:15 UTC.
Position N 26°05' W 080°11'.
Warning: this ship's position is 8 days out of date.

Length 34 m; draft 2.4 m.

Type: Pleasure craft. MMSI: 367753960.

Date/timePositionNaut miles runAvg speedWind from/ knotsBaromVisibWave heightAir tempDewpointWater temp
2018-Jan-12 15:00N 26°05' W 080°11'0 0.0
2018-Jan-12 14:30N 26°05' W 080°11'0 0.0
2018-Jan-12 14:00N 26°05' W 080°11'0 0.0
2018-Jan-12 13:30N 26°05' W 080°11'0 0.0
2018-Jan-12 13:00N 26°05' W 080°11'0 0.0
2018-Jan-12 12:30N 26°05' W 080°11'1 1.5
2018-Jan-12 12:00N 26°06' W 080°10'2 3.4
2018-Jan-12 11:30N 26°07' W 080°09'1 2.5
2018-Jan-12 11:00N 26°07' W 080°08'2 3.2
2018-Jan-12 10:30N 26°06' W 080°07'4 8.8
2018-Jan-12 10:00N 26°08' W 080°03'5 9.5
2018-Jan-12 09:30N 26°13' W 080°02'4 8.8
2018-Jan-12 09:00N 26°17' W 080°01'  
Track history (hours):
 
Tides and Currents Weather Stations Pressure Air Temp Water Temp Dewpoint Dewpoint Depression Visibility Wind Speed Wind Dir Waves Ship Positions

Insignia

Owner: Hamilton, Robin, Fort Lauderdale, FL. More information available from US FCC via Universal Licensing System and Coast Guard Vessel Documentation Center.

Last reported at 2018-Jan-12 15:00 UTC. Time now 2018-Jan-20 15:15 UTC.
Position N 26°05' W 080°11'.
Warning: this ship's position is 8 days out of date.

Length 34 m; draft 2.4 m.

Type: Pleasure craft. MMSI: 367753960.

Date/timePositionNaut miles runAvg speedWind from/ knotsBaromVisibWave heightAir tempDewpointWater temp
2018-Jan-12 15:00N 26°05' W 080°11'0 0.0
2018-Jan-12 14:30N 26°05' W 080°11'0 0.0
2018-Jan-12 14:00N 26°05' W 080°11'0 0.0
2018-Jan-12 13:30N 26°05' W 080°11'0 0.0
2018-Jan-12 13:00N 26°05' W 080°11'0 0.0
2018-Jan-12 12:30N 26°05' W 080°11'1 1.5
2018-Jan-12 12:00N 26°06' W 080°10'2 3.4
2018-Jan-12 11:30N 26°07' W 080°09'1 2.5
2018-Jan-12 11:00N 26°07' W 080°08'2 3.2
2018-Jan-12 10:30N 26°06' W 080°07'4 8.8
2018-Jan-12 10:00N 26°08' W 080°03'5 9.5
2018-Jan-12 09:30N 26°13' W 080°02'4 8.8
2018-Jan-12 09:00N 26°17' W 080°01'  

Dump ship's entire track history